sensor_id;sensor_type;location;lat;lon;timestamp;pressure;altitude;pressure_sealevel;temperature;humidity
10978;BME280;5542;48.272;10.794;2023-04-29T00:00:05;95401.06;;;10.85;100.00
10978;BME280;5542;48.272;10.794;2023-04-29T00:02:33;95400.53;;;10.83;100.00
10978;BME280;5542;48.272;10.794;2023-04-29T00:05:00;95403.38;;;10.82;100.00
10978;BME280;5542;48.272;10.794;2023-04-29T00:07:29;95396.28;;;10.82;100.00
10978;BME280;5542;48.272;10.794;2023-04-29T00:09:56;95395.34;;;10.88;100.00
10978;BME280;5542;48.272;10.794;2023-04-29T00:12:23;95392.84;;;10.82;100.00
10978;BME280;5542;48.272;10.794;2023-04-29T00:14:50;95391.41;;;10.74;100.00
10978;BME280;5542;48.272;10.794;2023-04-29T00:17:17;95390.84;;;10.72;100.00
10978;BME280;5542;48.272;10.794;2023-04-29T00:19:45;95387.19;;;10.73;100.00
10978;BME280;5542;48.272;10.794;2023-04-29T00:22:12;95387.34;;;10.66;100.00
10978;BME280;5542;48.272;10.794;2023-04-29T00:24:38;95384.78;;;10.71;100.00
10978;BME280;5542;48.272;10.794;2023-04-29T00:27:05;95386.63;;;10.71;100.00
10978;BME280;5542;48.272;10.794;2023-04-29T00:29:32;95386.38;;;10.72;100.00
10978;BME280;5542;48.272;10.794;2023-04-29T00:31:58;95385.59;;;10.72;100.00
10978;BME280;5542;48.272;10.794;2023-04-29T00:34:25;95390.13;;;10.76;100.00
10978;BME280;5542;48.272;10.794;2023-04-29T00:36:53;95390.28;;;10.70;100.00
10978;BME280;5542;48.272;10.794;2023-04-29T00:39:19;95384.44;;;10.68;100.00
10978;BME280;5542;48.272;10.794;2023-04-29T00:41:46;95388.69;;;10.69;100.00
10978;BME280;5542;48.272;10.794;2023-04-29T00:44:12;95394.88;;;10.63;100.00
10978;BME280;5542;48.272;10.794;2023-04-29T00:46:39;95383.47;;;10.57;100.00
10978;BME280;5542;48.272;10.794;2023-04-29T00:49:06;95390.03;;;10.55;100.00
10978;BME280;5542;48.272;10.794;2023-04-29T00:51:35;95392.66;;;10.55;100.00
10978;BME280;5542;48.272;10.794;2023-04-29T00:54:04;95393.22;;;10.57;100.00
10978;BME280;5542;48.272;10.794;2023-04-29T00:56:33;95390.41;;;10.63;100.00
10978;BME280;5542;48.272;10.794;2023-04-29T00:59:01;95393.88;;;10.64;100.00
10978;BME280;5542;48.272;10.794;2023-04-29T01:01:29;95382.78;;;10.62;100.00
10978;BME280;5542;48.272;10.794;2023-04-29T01:03:56;95389.06;;;10.61;100.00
10978;BME280;5542;48.272;10.794;2023-04-29T01:06:28;95382.41;;;10.70;100.00
10978;BME280;5542;48.272;10.794;2023-04-29T01:09:12;95389.25;;;10.71;100.00
10978;BME280;5542;48.272;10.794;2023-04-29T01:11:48;95388.22;;;10.72;100.00
10978;BME280;5542;48.272;10.794;2023-04-29T01:14:18;95383.19;;;10.70;100.00
10978;BME280;5542;48.272;10.794;2023-04-29T01:16:50;95390.28;;;10.70;100.00
10978;BME280;5542;48.272;10.794;2023-04-29T01:19:26;95399.66;;;10.94;100.00
10978;BME280;5542;48.272;10.794;2023-04-29T01:21:59;95396.78;;;10.96;100.00
10978;BME280;5542;48.272;10.794;2023-04-29T01:24:27;95396.28;;;10.82;100.00
10978;BME280;5542;48.272;10.794;2023-04-29T01:26:56;95393.56;;;10.77;100.00
10978;BME280;5542;48.272;10.794;2023-04-29T01:29:31;95394.13;;;10.79;100.00
10978;BME280;5542;48.272;10.794;2023-04-29T01:32:04;95400.03;;;10.86;100.00
10978;BME280;5542;48.272;10.794;2023-04-29T01:34:38;95394.38;;;10.94;100.00
10978;BME280;5542;48.272;10.794;2023-04-29T01:37:13;95392.72;;;10.88;100.00
10978;BME280;5542;48.272;10.794;2023-04-29T01:39:59;95388.66;;;10.97;100.00
10978;BME280;5542;48.272;10.794;2023-04-29T01:42:37;95385.69;;;10.94;100.00
10978;BME280;5542;48.272;10.794;2023-04-29T01:45:06;95392.53;;;10.95;100.00
10978;BME280;5542;48.272;10.794;2023-04-29T01:47:34;95391.28;;;10.97;100.00
10978;BME280;5542;48.272;10.794;2023-04-29T01:50:01;95394.38;;;10.94;100.00
10978;BME280;5542;48.272;10.794;2023-04-29T01:52:28;95385.44;;;10.95;100.00
10978;BME280;5542;48.272;10.794;2023-04-29T01:54:54;95389.44;;;10.98;100.00
10978;BME280;5542;48.272;10.794;2023-04-29T01:57:23;95387.88;;;10.97;100.00
10978;BME280;5542;48.272;10.794;2023-04-29T01:59:49;95389.78;;;11.01;100.00
10978;BME280;5542;48.272;10.794;2023-04-29T02:02:16;95382.34;;;10.98;100.00
10978;BME280;5542;48.272;10.794;2023-04-29T02:04:45;95380.59;;;11.04;100.00
10978;BME280;5542;48.272;10.794;2023-04-29T02:07:14;95387.69;;;11.03;100.00
10978;BME280;5542;48.272;10.794;2023-04-29T02:09:41;95379.34;;;11.07;100.00
10978;BME280;5542;48.272;10.794;2023-04-29T02:12:08;95380.34;;;11.06;100.00
10978;BME280;5542;48.272;10.794;2023-04-29T02:14:36;95384.88;;;11.10;100.00
10978;BME280;5542;48.272;10.794;2023-04-29T02:17:02;95383.63;;;11.13;100.00
10978;BME280;5542;48.272;10.794;2023-04-29T02:19:29;95382.59;;;11.14;100.00
10978;BME280;5542;48.272;10.794;2023-04-29T02:21:55;95384.75;;;11.17;100.00
10978;BME280;5542;48.272;10.794;2023-04-29T02:24:22;95387.38;;;11.17;100.00
10978;BME280;5542;48.272;10.794;2023-04-29T02:26:49;95389.69;;;11.13;100.00
10978;BME280;5542;48.272;10.794;2023-04-29T02:29:15;95387.31;;;11.12;100.00
10978;BME280;5542;48.272;10.794;2023-04-29T02:31:43;95385.13;;;11.09;100.00
10978;BME280;5542;48.272;10.794;2023-04-29T02:34:10;95394.16;;;11.13;100.00
10978;BME280;5542;48.272;10.794;2023-04-29T02:36:36;95395.13;;;11.07;100.00
10978;BME280;5542;48.272;10.794;2023-04-29T02:39:03;95396.38;;;11.04;100.00
10978;BME280;5542;48.272;10.794;2023-04-29T02:41:30;95399.34;;;11.08;100.00
10978;BME280;5542;48.272;10.794;2023-04-29T02:43:57;95392.72;;;11.05;100.00
10978;BME280;5542;48.272;10.794;2023-04-29T02:46:24;95396.22;;;11.11;100.00
10978;BME280;5542;48.272;10.794;2023-04-29T02:48:52;95393.69;;;11.16;100.00
10978;BME280;5542;48.272;10.794;2023-04-29T02:51:19;95397.91;;;11.17;100.00
10978;BME280;5542;48.272;10.794;2023-04-29T02:53:45;95400.88;;;11.20;100.00
10978;BME280;5542;48.272;10.794;2023-04-29T02:56:12;95403.31;;;11.27;100.00
10978;BME280;5542;48.272;10.794;2023-04-29T02:58:38;95399.56;;;11.23;100.00
10978;BME280;5542;48.272;10.794;2023-04-29T03:01:06;95392.06;;;11.15;100.00
10978;BME280;5542;48.272;10.794;2023-04-29T03:03:33;95400.59;;;11.05;100.00
10978;BME280;5542;48.272;10.794;2023-04-29T03:06:01;95398.84;;;11.11;100.00
10978;BME280;5542;48.272;10.794;2023-04-29T03:08:27;95397.03;;;11.11;100.00
10978;BME280;5542;48.272;10.794;2023-04-29T03:10:54;95405.88;;;11.05;100.00
10978;BME280;5542;48.272;10.794;2023-04-29T03:13:20;95393.03;;;11.09;100.00
10978;BME280;5542;48.272;10.794;2023-04-29T03:15:47;95399.81;;;11.05;100.00
10978;BME280;5542;48.272;10.794;2023-04-29T03:18:13;95391.38;;;11.02;100.00
10978;BME280;5542;48.272;10.794;2023-04-29T03:20:40;95384.59;;;11.07;100.00
10978;BME280;5542;48.272;10.794;2023-04-29T03:23:08;95404.03;;;11.06;100.00
10978;BME280;5542;48.272;10.794;2023-04-29T03:25:35;95395.19;;;10.95;100.00
10978;BME280;5542;48.272;10.794;2023-04-29T03:28:01;95391.75;;;10.94;100.00
10978;BME280;5542;48.272;10.794;2023-04-29T03:30:28;95390.25;;;10.98;100.00
10978;BME280;5542;48.272;10.794;2023-04-29T03:32:55;95392.78;;;11.10;100.00
10978;BME280;5542;48.272;10.794;2023-04-29T03:35:21;95388.41;;;10.99;100.00
10978;BME280;5542;48.272;10.794;2023-04-29T03:37:48;95394.13;;;10.96;100.00
10978;BME280;5542;48.272;10.794;2023-04-29T03:40:17;95388.97;;;11.01;100.00
10978;BME280;5542;48.272;10.794;2023-04-29T03:42:43;95388.31;;;11.11;100.00
10978;BME280;5542;48.272;10.794;2023-04-29T03:45:10;95388.31;;;11.11;100.00
10978;BME280;5542;48.272;10.794;2023-04-29T03:47:38;95399.09;;;11.09;100.00
10978;BME280;5542;48.272;10.794;2023-04-29T03:50:06;95392.06;;;11.15;100.00
10978;BME280;5542;48.272;10.794;2023-04-29T03:52:35;95396.13;;;11.06;100.00
10978;BME280;5542;48.272;10.794;2023-04-29T03:55:02;95388.56;;;11.26;100.00
10978;BME280;5542;48.272;10.794;2023-04-29T03:57:30;95388.44;;;11.16;100.00
10978;BME280;5542;48.272;10.794;2023-04-29T03:59:57;95389.94;;;11.12;100.00
10978;BME280;5542;48.272;10.794;2023-04-29T04:02:25;95390.72;;;11.12;100.00
10978;BME280;5542;48.272;10.794;2023-04-29T04:04:52;95395.50;;;11.15;100.00
10978;BME280;5542;48.272;10.794;2023-04-29T04:07:19;95398.44;;;11.19;100.00
10978;BME280;5542;48.272;10.794;2023-04-29T04:09:46;95401.09;;;11.19;100.00
10978;BME280;5542;48.272;10.794;2023-04-29T04:12:12;95399.66;;;11.28;100.00
10978;BME280;5542;48.272;10.794;2023-04-29T04:14:40;95400.94;;;11.25;100.00
10978;BME280;5542;48.272;10.794;2023-04-29T04:17:07;95398.94;;;11.33;100.00
10978;BME280;5542;48.272;10.794;2023-04-29T04:19:34;95410.91;;;11.40;100.00
10978;BME280;5542;48.272;10.794;2023-04-29T04:22:02;95408.50;;;11.39;100.00
10978;BME280;5542;48.272;10.794;2023-04-29T04:24:28;95408.97;;;11.52;100.00
10978;BME280;5542;48.272;10.794;2023-04-29T04:26:55;95417.03;;;11.46;100.00
10978;BME280;5542;48.272;10.794;2023-04-29T04:29:22;95422.78;;;11.43;100.00
10978;BME280;5542;48.272;10.794;2023-04-29T04:31:50;95427.00;;;11.44;100.00
10978;BME280;5542;48.272;10.794;2023-04-29T04:34:16;95425.00;;;11.51;100.00
10978;BME280;5542;48.272;10.794;2023-04-29T04:36:43;95424.03;;;11.57;100.00
10978;BME280;5542;48.272;10.794;2023-04-29T04:39:10;95425.72;;;11.63;100.00
10978;BME280;5542;48.272;10.794;2023-04-29T04:41:37;95428.84;;;11.60;100.00
10978;BME280;5542;48.272;10.794;2023-04-29T04:44:04;95431.22;;;11.62;100.00
10978;BME280;5542;48.272;10.794;2023-04-29T04:46:30;95426.19;;;11.60;100.00
10978;BME280;5542;48.272;10.794;2023-04-29T04:48:58;95433.44;;;11.70;100.00
10978;BME280;5542;48.272;10.794;2023-04-29T04:51:25;95434.06;;;11.77;100.00
10978;BME280;5542;48.272;10.794;2023-04-29T04:53:53;95436.63;;;11.72;100.00
10978;BME280;5542;48.272;10.794;2023-04-29T04:56:19;95436.63;;;11.72;100.00
10978;BME280;5542;48.272;10.794;2023-04-29T04:58:46;95443.69;;;11.83;100.00
10978;BME280;5542;48.272;10.794;2023-04-29T05:01:13;95434.25;;;11.87;100.00
10978;BME280;5542;48.272;10.794;2023-04-29T05:03:39;95440.63;;;11.91;100.00
10978;BME280;5542;48.272;10.794;2023-04-29T05:06:07;95444.44;;;12.00;100.00
10978;BME280;5542;48.272;10.794;2023-04-29T05:08:34;95442.44;;;12.08;100.00
10978;BME280;5542;48.272;10.794;2023-04-29T05:13:43;95446.41;;;12.10;100.00
10978;BME280;5542;48.272;10.794;2023-04-29T05:16:10;95456.09;;;12.04;100.00
10978;BME280;5542;48.272;10.794;2023-04-29T05:18:36;95454.88;;;12.12;100.00
10978;BME280;5542;48.272;10.794;2023-04-29T05:21:03;95452.72;;;12.09;100.00
10978;BME280;5542;48.272;10.794;2023-04-29T05:23:31;95457.63;;;12.22;100.00
10978;BME280;5542;48.272;10.794;2023-04-29T05:25:58;95455.31;;;12.26;100.00
10978;BME280;5542;48.272;10.794;2023-04-29T05:28:24;95459.91;;;12.36;100.00
10978;BME280;5542;48.272;10.794;2023-04-29T05:30:51;95464.88;;;12.32;100.00
10978;BME280;5542;48.272;10.794;2023-04-29T05:33:18;95470.34;;;12.25;100.00
10978;BME280;5542;48.272;10.794;2023-04-29T05:35:44;95457.00;;;12.15;100.00
10978;BME280;5542;48.272;10.794;2023-04-29T05:38:11;95468.59;;;12.14;100.00
10978;BME280;5542;48.272;10.794;2023-04-29T05:40:39;95472.41;;;12.23;100.00
10978;BME280;5542;48.272;10.794;2023-04-29T05:43:06;95475.13;;;12.28;100.00
10978;BME280;5542;48.272;10.794;2023-04-29T05:45:32;95475.13;;;12.28;100.00
10978;BME280;5542;48.272;10.794;2023-04-29T05:48:01;95473.59;;;12.33;100.00
10978;BME280;5542;48.272;10.794;2023-04-29T05:50:27;95469.78;;;12.45;100.00
10978;BME280;5542;48.272;10.794;2023-04-29T05:52:54;95474.34;;;12.50;100.00
10978;BME280;5542;48.272;10.794;2023-04-29T05:55:21;95477.19;;;12.48;100.00
10978;BME280;5542;48.272;10.794;2023-04-29T05:57:49;95479.47;;;12.62;100.00
10978;BME280;5542;48.272;10.794;2023-04-29T06:00:15;95482.66;;;12.64;100.00
10978;BME280;5542;48.272;10.794;2023-04-29T06:02:42;95481.13;;;12.68;100.00
10978;BME280;5542;48.272;10.794;2023-04-29T06:05:10;95476.34;;;12.65;100.00
10978;BME280;5542;48.272;10.794;2023-04-29T06:07:36;95479.75;;;12.87;100.00
10978;BME280;5542;48.272;10.794;2023-04-29T06:10:05;95489.38;;;12.98;100.00
10978;BME280;5542;48.272;10.794;2023-04-29T06:12:32;95484.53;;;13.17;100.00
10978;BME280;5542;48.272;10.794;2023-04-29T06:15:00;95486.66;;;13.15;100.00
10978;BME280;5542;48.272;10.794;2023-04-29T06:17:27;95489.50;;;13.36;100.00
10978;BME280;5542;48.272;10.794;2023-04-29T06:19:54;95489.94;;;13.27;100.00
10978;BME280;5542;48.272;10.794;2023-04-29T06:22:20;95491.75;;;13.22;100.00
10978;BME280;5542;48.272;10.794;2023-04-29T06:24:47;95500.84;;;13.36;100.00
10978;BME280;5542;48.272;10.794;2023-04-29T06:27:14;95490.13;;;13.21;100.00
10978;BME280;5542;48.272;10.794;2023-04-29T06:29:41;95495.22;;;13.27;100.00
10978;BME280;5542;48.272;10.794;2023-04-29T06:32:09;95499.59;;;13.17;100.00
10978;BME280;5542;48.272;10.794;2023-04-29T06:34:35;95494.97;;;13.29;100.00
10978;BME280;5542;48.272;10.794;2023-04-29T06:37:03;95499.88;;;13.47;100.00
10978;BME280;5542;48.272;10.794;2023-04-29T06:39:30;95502.00;;;13.45;100.00
10978;BME280;5542;48.272;10.794;2023-04-29T06:41:56;95507.84;;;13.52;100.00
10978;BME280;5542;48.272;10.794;2023-04-29T06:44:24;95502.06;;;13.55;100.00
10978;BME280;5542;48.272;10.794;2023-04-29T06:46:50;95508.72;;;13.58;100.00
10978;BME280;5542;48.272;10.794;2023-04-29T06:49:18;95510.78;;;13.56;100.00
10978;BME280;5542;48.272;10.794;2023-04-29T06:51:46;95510.03;;;13.61;100.00
10978;BME280;5542;48.272;10.794;2023-04-29T06:54:13;95516.03;;;13.83;100.00
10978;BME280;5542;48.272;10.794;2023-04-29T06:56:39;95506.66;;;14.02;99.89
10978;BME280;5542;48.272;10.794;2023-04-29T06:59:06;95508.63;;;14.27;98.58
10978;BME280;5542;48.272;10.794;2023-04-29T07:01:32;95504.34;;;14.64;98.14
10978;BME280;5542;48.272;10.794;2023-04-29T07:03:59;95505.53;;;15.03;94.47
10978;BME280;5542;48.272;10.794;2023-04-29T07:06:27;95508.97;;;15.04;92.77
10978;BME280;5542;48.272;10.794;2023-04-29T07:08:54;95514.78;;;14.96;93.26
10978;BME280;5542;48.272;10.794;2023-04-29T07:11:20;95512.97;;;15.06;92.42
10978;BME280;5542;48.272;10.794;2023-04-29T07:13:49;95519.31;;;15.00;92.92
10978;BME280;5542;48.272;10.794;2023-04-29T07:16:16;95509.31;;;15.43;94.79
10978;BME280;5542;48.272;10.794;2023-04-29T07:18:44;95521.22;;;15.46;88.77
10978;BME280;5542;48.272;10.794;2023-04-29T07:21:11;95516.22;;;15.44;89.18
10978;BME280;5542;48.272;10.794;2023-04-29T07:23:39;95522.34;;;15.70;89.03
10978;BME280;5542;48.272;10.794;2023-04-29T07:26:10;95514.13;;;15.97;88.25
10978;BME280;5542;48.272;10.794;2023-04-29T07:28:36;95515.66;;;16.34;85.98
10978;BME280;5542;48.272;10.794;2023-04-29T07:31:03;95517.75;;;16.32;83.41
10978;BME280;5542;48.272;10.794;2023-04-29T07:33:30;95521.50;;;16.26;82.14
10978;BME280;5542;48.272;10.794;2023-04-29T07:35:57;95519.34;;;16.38;83.24
10978;BME280;5542;48.272;10.794;2023-04-29T07:38:24;95516.88;;;16.67;85.32
10978;BME280;5542;48.272;10.794;2023-04-29T07:40:52;95522.44;;;16.65;81.27
10978;BME280;5542;48.272;10.794;2023-04-29T07:43:19;95522.41;;;16.71;81.47
10978;BME280;5542;48.272;10.794;2023-04-29T07:45:46;95526.72;;;16.67;79.96
10978;BME280;5542;48.272;10.794;2023-04-29T07:48:12;95529.38;;;16.51;80.02
10978;BME280;5542;48.272;10.794;2023-04-29T07:50:39;95534.22;;;16.19;80.34
10978;BME280;5542;48.272;10.794;2023-04-29T07:53:06;95532.63;;;16.33;77.93
10978;BME280;5542;48.272;10.794;2023-04-29T07:55:36;95534.66;;;16.61;79.80
10978;BME280;5542;48.272;10.794;2023-04-29T07:58:04;95531.25;;;16.46;78.24
10978;BME280;5542;48.272;10.794;2023-04-29T08:00:30;95536.25;;;16.68;80.42
10978;BME280;5542;48.272;10.794;2023-04-29T08:02:57;95530.94;;;17.27;76.36
10978;BME280;5542;48.272;10.794;2023-04-29T08:05:24;95526.41;;;17.72;72.01
10978;BME280;5542;48.272;10.794;2023-04-29T08:07:50;95533.25;;;17.83;70.95
10978;BME280;5542;48.272;10.794;2023-04-29T08:10:18;95526.03;;;17.89;70.40
10978;BME280;5542;48.272;10.794;2023-04-29T08:12:46;95531.44;;;17.79;71.44
10978;BME280;5542;48.272;10.794;2023-04-29T08:15:14;95520.84;;;18.03;72.95
10978;BME280;5542;48.272;10.794;2023-04-29T08:17:42;95530.25;;;18.24;69.67
10978;BME280;5542;48.272;10.794;2023-04-29T08:20:10;95521.00;;;18.16;68.45
10978;BME280;5542;48.272;10.794;2023-04-29T08:22:36;95530.94;;;18.06;70.83
10978;BME280;5542;48.272;10.794;2023-04-29T08:25:03;95522.72;;;18.02;68.32
10978;BME280;5542;48.272;10.794;2023-04-29T08:27:30;95536.38;;;17.51;69.85
10978;BME280;5542;48.272;10.794;2023-04-29T08:29:57;95531.19;;;17.75;67.75
10978;BME280;5542;48.272;10.794;2023-04-29T08:32:25;95526.75;;;18.00;68.46
10978;BME280;5542;48.272;10.794;2023-04-29T08:34:51;95524.38;;;18.22;64.99
10978;BME280;5542;48.272;10.794;2023-04-29T08:37:18;95526.34;;;18.40;64.63
10978;BME280;5542;48.272;10.794;2023-04-29T08:39:45;95526.63;;;18.63;64.02
10978;BME280;5542;48.272;10.794;2023-04-29T08:42:12;95532.53;;;18.84;67.47
10978;BME280;5542;48.272;10.794;2023-04-29T08:44:39;95526.97;;;19.04;61.62
10978;BME280;5542;48.272;10.794;2023-04-29T08:47:06;95531.84;;;18.97;62.14
10978;BME280;5542;48.272;10.794;2023-04-29T08:49:35;95531.25;;;18.57;63.72
10978;BME280;5542;48.272;10.794;2023-04-29T08:52:02;95536.75;;;18.37;62.13
10978;BME280;5542;48.272;10.794;2023-04-29T08:54:30;95528.56;;;18.57;62.25
10978;BME280;5542;48.272;10.794;2023-04-29T08:56:57;95531.50;;;18.85;62.31
10978;BME280;5542;48.272;10.794;2023-04-29T08:59:27;95525.91;;;19.24;60.06
10978;BME280;5542;48.272;10.794;2023-04-29T09:01:55;95520.88;;;19.60;60.46
10978;BME280;5542;48.272;10.794;2023-04-29T09:04:29;95532.03;;;19.81;59.87
10978;BME280;5542;48.272;10.794;2023-04-29T09:07:01;95516.31;;;20.26;55.53
10978;BME280;5542;48.272;10.794;2023-04-29T09:09:30;95525.41;;;20.11;54.93
10978;BME280;5542;48.272;10.794;2023-04-29T09:11:58;95524.06;;;19.62;55.72
10978;BME280;5542;48.272;10.794;2023-04-29T09:14:25;95528.59;;;19.24;56.29
10978;BME280;5542;48.272;10.794;2023-04-29T09:16:51;95529.59;;;19.28;58.13
10978;BME280;5542;48.272;10.794;2023-04-29T09:19:28;95542.78;;;19.57;58.56
10978;BME280;5542;48.272;10.794;2023-04-29T09:21:55;95540.75;;;19.87;60.25
10978;BME280;5542;48.272;10.794;2023-04-29T09:24:25;95536.72;;;20.36;58.51
10978;BME280;5542;48.272;10.794;2023-04-29T09:26:52;95535.34;;;20.38;56.66
10978;BME280;5542;48.272;10.794;2023-04-29T09:29:19;95535.13;;;20.35;53.89
10978;BME280;5542;48.272;10.794;2023-04-29T09:31:46;95530.81;;;20.06;55.80
10978;BME280;5542;48.272;10.794;2023-04-29T09:34:14;95537.25;;;20.05;57.65
10978;BME280;5542;48.272;10.794;2023-04-29T09:36:42;95540.84;;;20.14;53.27
10978;BME280;5542;48.272;10.794;2023-04-29T09:39:11;95532.16;;;20.23;52.34
10978;BME280;5542;48.272;10.794;2023-04-29T09:41:55;95538.34;;;20.51;51.81
10978;BME280;5542;48.272;10.794;2023-04-29T09:44:24;95534.59;;;20.93;53.89
10978;BME280;5542;48.272;10.794;2023-04-29T09:46:55;95532.41;;;21.22;48.70
10978;BME280;5542;48.272;10.794;2023-04-29T09:49:24;95529.09;;;21.39;51.34
10978;BME280;5542;48.272;10.794;2023-04-29T09:51:53;95525.06;;;21.87;48.30
10978;BME280;5542;48.272;10.794;2023-04-29T09:54:22;95517.09;;;21.73;46.43
10978;BME280;5542;48.272;10.794;2023-04-29T09:56:52;95534.56;;;21.70;50.57
10978;BME280;5542;48.272;10.794;2023-04-29T09:59:18;95537.41;;;21.74;50.16
10978;BME280;5542;48.272;10.794;2023-04-29T10:01:47;95531.94;;;21.57;47.71
10978;BME280;5542;48.272;10.794;2023-04-29T10:04:16;95541.50;;;21.21;47.72
10978;BME280;5542;48.272;10.794;2023-04-29T10:06:44;95546.69;;;20.77;49.53
10978;BME280;5542;48.272;10.794;2023-04-29T10:09:13;95548.47;;;20.81;52.01
10978;BME280;5542;48.272;10.794;2023-04-29T10:11:43;95547.28;;;21.01;51.40
10978;BME280;5542;48.272;10.794;2023-04-29T10:14:13;95540.72;;;21.35;47.43
10978;BME280;5542;48.272;10.794;2023-04-29T10:16:44;95534.47;;;21.39;47.21
10978;BME280;5542;48.272;10.794;2023-04-29T10:19:14;95529.75;;;21.59;46.79
10978;BME280;5542;48.272;10.794;2023-04-29T10:21:43;95527.72;;;21.64;46.26
10978;BME280;5542;48.272;10.794;2023-04-29T10:24:11;95531.72;;;21.67;47.07
10978;BME280;5542;48.272;10.794;2023-04-29T10:26:41;95527.63;;;21.69;47.27
10978;BME280;5542;48.272;10.794;2023-04-29T10:29:11;95526.78;;;21.83;45.79
10978;BME280;5542;48.272;10.794;2023-04-29T10:31:40;95527.50;;;21.52;45.58
10978;BME280;5542;48.272;10.794;2023-04-29T10:34:08;95531.06;;;21.47;45.17
10978;BME280;5542;48.272;10.794;2023-04-29T10:36:36;95522.50;;;21.09;44.45
10978;BME280;5542;48.272;10.794;2023-04-29T10:39:04;95532.03;;;20.60;45.47
10978;BME280;5542;48.272;10.794;2023-04-29T10:41:41;95528.66;;;20.68;45.51
10978;BME280;5542;48.272;10.794;2023-04-29T10:44:11;95537.78;;;20.54;44.40
10978;BME280;5542;48.272;10.794;2023-04-29T10:46:38;95526.41;;;20.15;45.44
10978;BME280;5542;48.272;10.794;2023-04-29T10:49:05;95528.06;;;20.11;44.65
10978;BME280;5542;48.272;10.794;2023-04-29T10:51:33;95522.44;;;20.13;44.79
10978;BME280;5542;48.272;10.794;2023-04-29T10:54:01;95517.66;;;19.96;45.45
10978;BME280;5542;48.272;10.794;2023-04-29T10:56:39;95518.78;;;20.09;46.18
10978;BME280;5542;48.272;10.794;2023-04-29T10:59:09;95526.31;;;20.20;46.50
10978;BME280;5542;48.272;10.794;2023-04-29T11:01:43;95525.13;;;20.27;45.54
10978;BME280;5542;48.272;10.794;2023-04-29T11:04:10;95522.53;;;20.08;45.41
10978;BME280;5542;48.272;10.794;2023-04-29T11:06:39;95526.38;;;20.02;45.87
10978;BME280;5542;48.272;10.794;2023-04-29T11:09:14;95516.59;;;20.11;46.27
10978;BME280;5542;48.272;10.794;2023-04-29T11:14:38;95503.47;;;20.14;46.83
10978;BME280;5542;48.272;10.794;2023-04-29T11:17:09;95515.25;;;20.13;47.43
10978;BME280;5542;48.272;10.794;2023-04-29T11:19:40;95518.50;;;20.24;47.36
10978;BME280;5542;48.272;10.794;2023-04-29T11:22:09;95521.88;;;20.30;47.15
10978;BME280;5542;48.272;10.794;2023-04-29T11:24:48;95512.94;;;20.07;44.88
10978;BME280;5542;48.272;10.794;2023-04-29T11:27:15;95517.44;;;19.92;45.93
10978;BME280;5542;48.272;10.794;2023-04-29T11:29:41;95521.22;;;19.73;46.20
10978;BME280;5542;48.272;10.794;2023-04-29T11:32:11;95529.09;;;19.64;46.36
10978;BME280;5542;48.272;10.794;2023-04-29T11:34:38;95532.22;;;19.71;45.97
10978;BME280;5542;48.272;10.794;2023-04-29T11:37:04;95524.38;;;19.75;45.85
10978;BME280;5542;48.272;10.794;2023-04-29T11:39:32;95526.72;;;19.81;46.17
10978;BME280;5542;48.272;10.794;2023-04-29T11:42:03;95530.16;;;19.82;46.68
10978;BME280;5542;48.272;10.794;2023-04-29T11:44:32;95540.00;;;20.00;46.23
10978;BME280;5542;48.272;10.794;2023-04-29T11:47:03;95523.59;;;20.07;45.67
10978;BME280;5542;48.272;10.794;2023-04-29T11:49:31;95532.53;;;20.16;45.90
10978;BME280;5542;48.272;10.794;2023-04-29T11:51:58;95524.84;;;20.28;45.52
10978;BME280;5542;48.272;10.794;2023-04-29T11:54:25;95539.19;;;20.46;45.29
10978;BME280;5542;48.272;10.794;2023-04-29T11:56:53;95525.47;;;20.39;45.16
10978;BME280;5542;48.272;10.794;2023-04-29T11:59:20;95534.78;;;20.41;44.85
10978;BME280;5542;48.272;10.794;2023-04-29T12:01:47;95528.66;;;20.55;43.27
10978;BME280;5542;48.272;10.794;2023-04-29T12:04:14;95524.00;;;20.46;43.48
10978;BME280;5542;48.272;10.794;2023-04-29T12:06:42;95526.81;;;20.36;44.65
10978;BME280;5542;48.272;10.794;2023-04-29T12:09:08;95528.97;;;20.53;44.37
10978;BME280;5542;48.272;10.794;2023-04-29T12:11:35;95534.69;;;20.74;43.88
10978;BME280;5542;48.272;10.794;2023-04-29T12:14:02;95516.09;;;20.83;41.49
10978;BME280;5542;48.272;10.794;2023-04-29T12:16:31;95523.47;;;20.44;42.39
10978;BME280;5542;48.272;10.794;2023-04-29T12:18:58;95523.06;;;20.24;43.02
10978;BME280;5542;48.272;10.794;2023-04-29T12:21:25;95517.41;;;20.11;42.53
10978;BME280;5542;48.272;10.794;2023-04-29T12:23:57;95533.47;;;19.74;43.68
10978;BME280;5542;48.272;10.794;2023-04-29T12:26:26;95522.94;;;19.82;44.12
10978;BME280;5542;48.272;10.794;2023-04-29T12:28:56;95519.44;;;20.01;43.66
10978;BME280;5542;48.272;10.794;2023-04-29T12:31:25;95516.84;;;20.28;43.76
10978;BME280;5542;48.272;10.794;2023-04-29T12:33:57;95526.03;;;20.36;44.32
10978;BME280;5542;48.272;10.794;2023-04-29T12:36:23;95529.00;;;20.34;44.91
10978;BME280;5542;48.272;10.794;2023-04-29T12:38:51;95535.03;;;20.40;44.46
10978;BME280;5542;48.272;10.794;2023-04-29T12:41:35;95533.81;;;20.51;45.18
10978;BME280;5542;48.272;10.794;2023-04-29T12:44:02;95521.25;;;20.52;42.31
10978;BME280;5542;48.272;10.794;2023-04-29T12:46:33;95531.00;;;20.42;42.90
10978;BME280;5542;48.272;10.794;2023-04-29T12:49:01;95524.00;;;20.46;42.33
10978;BME280;5542;48.272;10.794;2023-04-29T12:51:28;95529.28;;;20.52;42.73
10978;BME280;5542;48.272;10.794;2023-04-29T12:53:56;95523.94;;;20.65;43.41
10978;BME280;5542;48.272;10.794;2023-04-29T12:56:24;95532.69;;;20.38;44.54
10978;BME280;5542;48.272;10.794;2023-04-29T12:58:51;95534.09;;;20.50;42.69
10978;BME280;5542;48.272;10.794;2023-04-29T13:01:17;95532.09;;;20.41;43.29
10978;BME280;5542;48.272;10.794;2023-04-29T13:03:44;95533.66;;;20.29;42.37